Santa Ynez, CA

9:18 AM PDT on May 25, 2017 (GMT -0700)
Santa Ynez

Weather History for KIZA - January, 2014

Change the Weather History Date:

Friday, January 3, 2014

  Actual Average (KSBA) Record (KSBA)
Temperature  
Mean Temperature 55 °F -  
Max Temperature 73 °F 62 °F 78 °F (2001)
Min Temperature 37 °F 37 °F 28 °F (1976)
Degree Days  
Heating Degree Days 10    
Growing Degree Days 5 (Base 50)    
Moisture  
Dew Point 30 °F    
Average Humidity 44    
Maximum Humidity 65    
Minimum Humidity 15    
Precipitation  
Precipitation 0.00 in - - ()
Sea Level Pressure  
Sea Level Pressure 29.98 in    
Wind  
Wind Speed 2 mph (WNW)    
Max Wind Speed 15 mph    
Max Gust Speed 17 mph    
Visibility 10 miles    
Events      
Averages and records for this station are not official NWS values.
T = Trace of Precipitation, MM = Missing Value Source: NWS Daily Summary

Daily Weather History Graph

Daily Weather History Graph

Search for Another Location

Airport or City:

Trip Planner

Search our weather history database for the weather conditions in past years. The results will help you decide how hot, cold, wet, or windy it might be!

Date:

Astronomy

Jan. 03, 2014 Rise Set
Actual Time 7:07 AM PST 5:02 PM PST
Civil Twilight 6:39 AM PST 5:30 PM PST
Nautical Twilight 6:08 AM PST 6:01 PM PST
Astronomical Twilight 5:37 AM PST 6:32 PM PST
Moon 8:44 AM PST (1/3) 8:09 PM PST (1/3)
Length of Visible Light 10h 50m
Length of Day
9h 54m
Waxing Crescent, 8% of the Moon is Illuminated
Jan 3
Waxing Crescent
Jan 7
First Quarter
Jan 15
Full
Jan 23
Last Quarter
Jan 30
New

Hourly Weather History & Observations

Time (PST) Temp. Windchill Dew Point Humidity Pressure Visibility Wind Dir Wind Speed Gust Speed Precip Events Conditions
12:15 AM 48.2 °F - 26.6 °F 43% 30.05 in 10.0 mi East 4.6 mph - N/A   Clear
12:35 AM 44.6 °F - 26.6 °F 49% 30.04 in 10.0 mi Calm Calm - N/A   Clear
12:55 AM 44.6 °F - 26.6 °F 49% 30.03 in 10.0 mi Calm Calm - N/A   Clear
1:15 AM 42.8 °F - 28.4 °F 57% 30.03 in 10.0 mi Calm Calm - N/A   Clear
1:35 AM 42.8 °F - 28.4 °F 57% 30.03 in 10.0 mi Calm Calm - N/A   Clear
1:55 AM 42.8 °F - 28.4 °F 57% 30.03 in 10.0 mi Calm Calm - N/A   Clear
2:15 AM 42.8 °F 40.1 °F 28.4 °F 57% 30.02 in 10.0 mi East 4.6 mph - N/A   Clear
2:35 AM 39.2 °F 37.0 °F 28.4 °F 65% 30.02 in 10.0 mi East 3.5 mph - N/A   Clear
2:55 AM 42.8 °F - 26.6 °F 53% 30.02 in 10.0 mi Calm Calm - N/A   Clear
3:15 AM 42.8 °F - 26.6 °F 53% 30.01 in 10.0 mi Calm Calm - N/A   Clear
3:35 AM 42.8 °F - 26.6 °F 53% 30.01 in 10.0 mi Calm Calm - N/A   Clear
3:55 AM 41.0 °F - 28.4 °F 61% 30.01 in 10.0 mi Calm Calm - N/A   Clear
4:15 AM 42.8 °F - 26.6 °F 53% 30.01 in 10.0 mi Calm Calm - N/A   Clear
4:35 AM 42.8 °F 41.1 °F 26.6 °F 53% 30.00 in 10.0 mi East 3.5 mph - N/A   Clear
4:55 AM 41.0 °F - 26.6 °F 57% 30.00 in 10.0 mi Calm Calm - N/A   Clear
5:15 AM 41.0 °F - 26.6 °F 57% 30.01 in 10.0 mi Calm Calm - N/A   Clear
5:35 AM 37.4 °F - 26.6 °F 65% 30.01 in 10.0 mi Calm Calm - N/A   Clear
5:55 AM 42.8 °F - 26.6 °F 53% 30.02 in 10.0 mi Calm Calm - N/A   Clear
6:15 AM 39.2 °F - 26.6 °F 61% 30.03 in 10.0 mi Calm Calm - N/A   Clear
6:35 AM 41.0 °F 39.0 °F 26.6 °F 57% 30.03 in 10.0 mi ENE 3.5 mph - N/A   Clear
6:55 AM 41.0 °F 39.0 °F 26.6 °F 57% 30.03 in 10.0 mi ESE 3.5 mph - N/A   Clear
7:15 AM 39.2 °F - 26.6 °F 61% 30.03 in 10.0 mi Calm Calm - N/A   Clear
7:35 AM 41.0 °F - 26.6 °F 57% 30.03 in 10.0 mi Calm Calm - N/A   Clear
7:55 AM 42.8 °F - 26.6 °F 53% 30.04 in 10.0 mi Calm Calm - N/A   Clear
8:15 AM 44.6 °F - 26.6 °F 49% 30.04 in 10.0 mi Calm Calm - N/A   Clear
8:35 AM 48.2 °F - 26.6 °F 43% 30.05 in 10.0 mi Calm Calm - N/A   Clear
8:55 AM 48.2 °F - 28.4 °F 46% 30.05 in 10.0 mi Calm Calm - N/A   Clear
9:15 AM 51.8 °F - 28.4 °F 41% 30.05 in 10.0 mi Calm Calm - N/A   Clear
9:35 AM 55.4 °F - 26.6 °F 33% 30.04 in 10.0 mi East 3.5 mph - N/A   Clear
9:55 AM 55.4 °F - 28.4 °F 36% 30.03 in 10.0 mi Calm Calm - N/A   Clear
10:15 AM 59.0 °F - 28.4 °F 31% 30.02 in 10.0 mi Calm Calm - N/A   Clear
10:35 AM 60.8 °F - 28.4 °F 29% 30.01 in 10.0 mi Calm Calm - N/A   Clear
10:55 AM 62.6 °F - 26.6 °F 26% 30.00 in 10.0 mi Calm Calm - N/A   Clear
11:15 AM 66.2 °F - 26.6 °F 23% 29.98 in 10.0 mi Calm Calm - N/A   Clear
11:35 AM 69.8 °F - 24.8 °F 18% 29.97 in 10.0 mi WNW 3.5 mph - N/A   Clear
11:55 AM 71.6 °F - 21.2 °F 15% 29.96 in 10.0 mi West 6.9 mph - N/A   Clear
12:15 PM 73.4 °F - 23.0 °F 15% 29.95 in 10.0 mi West 11.5 mph 17.3 mph N/A   Clear
12:35 PM 71.6 °F - 26.6 °F 19% 29.95 in 10.0 mi WNW 15.0 mph - N/A   Clear
12:55 PM 71.6 °F - 32.0 °F 23% 29.95 in 10.0 mi WNW 10.4 mph - N/A   Clear
1:15 PM 71.6 °F - 32.0 °F 23% 29.94 in 10.0 mi WNW 10.4 mph - N/A   Clear
1:35 PM 71.6 °F - 32.0 °F 23% 29.94 in 10.0 mi WNW 12.7 mph - N/A   Clear
1:55 PM 71.6 °F - 32.0 °F 23% 29.93 in 10.0 mi West 11.5 mph - N/A   Clear
2:15 PM 71.6 °F - 32.0 °F 23% 29.93 in 10.0 mi West 9.2 mph - N/A   Clear
2:35 PM 69.8 °F - 32.0 °F 25% 29.92 in 10.0 mi West 6.9 mph - N/A   Clear
2:55 PM 69.8 °F - 32.0 °F 25% 29.92 in 10.0 mi WSW 4.6 mph - N/A   Clear
3:15 PM 69.8 °F - 32.0 °F 25% 29.92 in 10.0 mi WSW 4.6 mph - N/A   Clear
3:35 PM 69.8 °F - 33.8 °F 27% 29.92 in 10.0 mi West 5.8 mph - N/A   Clear
3:55 PM 68.0 °F - 37.4 °F 33% 29.92 in 10.0 mi West 6.9 mph - N/A   Clear
4:15 PM 66.2 °F - 37.4 °F 35% 29.92 in 10.0 mi Calm Calm - N/A   Clear
4:35 PM 64.4 °F - 37.4 °F 37% 29.92 in 10.0 mi WSW 3.5 mph - N/A   Clear
4:55 PM 62.6 °F - 37.4 °F 39% 29.92 in 10.0 mi West 4.6 mph - N/A   Clear
5:15 PM 62.6 °F - 37.4 °F 39% 29.93 in 10.0 mi Calm Calm - N/A   Clear
5:35 PM 62.6 °F - 37.4 °F 39% 29.93 in 10.0 mi Calm Calm - N/A   Clear
5:55 PM 62.6 °F - 37.4 °F 39% 29.94 in 10.0 mi Calm Calm - N/A   Clear
6:15 PM 62.6 °F - 37.4 °F 39% 29.94 in 10.0 mi Calm Calm - N/A   Clear
6:35 PM 57.2 °F - 37.4 °F 48% 29.94 in 10.0 mi East 3.5 mph - N/A   Clear
6:55 PM 57.2 °F - 37.4 °F 48% 29.94 in 10.0 mi Calm Calm - N/A   Clear
7:15 PM 53.6 °F - 35.6 °F 51% 29.95 in 10.0 mi North 3.5 mph - N/A   Clear
7:35 PM 53.6 °F - 32.0 °F 44% 29.95 in 10.0 mi Calm Calm - N/A   Clear
7:55 PM 53.6 °F - 32.0 °F 44% 29.95 in 10.0 mi Calm Calm - N/A   Clear
8:15 PM 53.6 °F - 35.6 °F 51% 29.96 in 10.0 mi Calm Calm - N/A   Clear
8:35 PM 53.6 °F - 35.6 °F 51% 29.96 in 10.0 mi Calm Calm - N/A   Clear
8:55 PM 51.8 °F - 32.0 °F 47% 29.97 in 10.0 mi Calm Calm - N/A   Clear
9:15 PM 50.0 °F - 32.0 °F 50% 29.97 in 10.0 mi Calm Calm - N/A   Clear
9:35 PM 50.0 °F - 32.0 °F 50% 29.98 in 10.0 mi Calm Calm - N/A   Clear
9:55 PM 50.0 °F - 35.6 °F 58% 29.98 in 10.0 mi Calm Calm - N/A   Clear
10:15 PM 50.0 °F - 33.8 °F 54% 29.98 in 10.0 mi Calm Calm - N/A   Clear
10:35 PM 50.0 °F - 33.8 °F 54% 29.98 in 10.0 mi Calm Calm - N/A   Clear
10:55 PM 46.4 °F - 32.0 °F 57% 29.98 in 10.0 mi Calm Calm - N/A   Clear
11:15 PM 44.6 °F 42.2 °F 32.0 °F 61% 29.98 in 10.0 mi NE 4.6 mph - N/A   Clear
11:35 PM 46.4 °F - 33.8 °F 62% 29.97 in 10.0 mi Calm Calm - N/A   Clear
11:55 PM 46.4 °F - 33.8 °F 62% 29.97 in 10.0 mi Calm Calm - N/A   Clear